Time;durP1;ratioP1;P1;durP2;ratioP2;P2;SDS_P1;SDS_P2;PMS_P1;PMS_P2;Temp;Humidity;BMP_temperature;BMP_pressure;BME280_temperature;BME280_humidity;BME280_pressure;Samples;Min_cycle;Max_cycle;Signal;HPM_P1;HPM_P2
2022/07/25 00:00:12;;;;;;;;;;;;;;;23.75;94.59;153628.55;1645413;87;22216;-69
2022/07/25 00:02:41;;;;;;;;;;;;;;;23.77;94.02;153631.22;1645643;87;20194;-69
2022/07/25 00:05:08;;;;;;;;;;;;;;;23.77;93.52;153631.22;1645421;87;21282;-68
2022/07/25 00:07:34;;;;;;;;;;;;;;;23.78;93.36;153633.83;1646139;87;20377;-69
2022/07/25 00:10:01;;;;;;;;;;;;;;;23.80;93.09;153639.06;1645618;87;20187;-68
2022/07/25 00:12:30;;;;;;;;;;;;;;;23.80;92.87;153639.06;1644330;87;20234;-69
2022/07/25 00:14:56;;;;;;;;;;;;;;;23.79;92.41;153637.73;1644320;87;20231;-69
2022/07/25 00:17:23;;;;;;;;;;;;;;;23.80;91.83;153639.06;1644177;87;22065;-69
2022/07/25 00:19:52;;;;;;;;;;;;;;;23.79;91.27;153636.45;1640453;87;20211;-68
2022/07/25 00:22:19;;;;;;;;;;;;;;;23.77;91.04;153631.22;1640714;87;20499;-68
2022/07/25 00:24:47;;;;;;;;;;;;;;;23.77;91.34;153632.50;1640372;87;20741;-69
2022/07/25 00:27:14;;;;;;;;;;;;;;;23.75;91.57;153627.27;1640363;87;20164;-68
2022/07/25 00:29:40;;;;;;;;;;;;;;;23.73;92.17;153622.03;1640450;87;21259;-68
2022/07/25 00:32:08;;;;;;;;;;;;;;;23.73;93.15;153623.31;1640087;87;20219;-68
2022/07/25 00:34:35;;;;;;;;;;;;;;;23.72;93.64;153620.70;1640603;87;20559;-68
2022/07/25 00:37:02;;;;;;;;;;;;;;;23.70;93.45;153614.19;1640455;87;20480;-69
2022/07/25 00:39:28;;;;;;;;;;;;;;;23.66;93.04;153605.02;1640366;87;20188;-69
2022/07/25 00:41:55;;;;;;;;;;;;;;;23.65;93.45;153602.39;1640448;87;21164;-68
2022/07/25 00:44:29;;;;;;;;;;;;;;;23.66;94.17;153603.73;1640386;87;20212;-68
2022/07/25 00:46:55;;;;;;;;;;;;;;;23.65;94.37;153601.06;1640612;87;20525;-68
2022/07/25 00:49:23;;;;;;;;;;;;;;;23.63;94.04;153595.83;1640551;87;20168;-68
2022/07/25 00:51:50;;;;;;;;;;;;;;;23.60;93.39;153589.31;1640636;87;20251;-69
2022/07/25 00:54:17;;;;;;;;;;;;;;;23.58;93.08;153584.09;1623798;87;21225;-68
2022/07/25 00:56:44;;;;;;;;;;;;;;;23.54;92.86;153574.91;1605953;89;20455;-69
2022/07/25 00:59:13;;;;;;;;;;;;;;;23.50;92.82;153564.44;1606128;89;32447;-69
2022/07/25 01:01:41;;;;;;;;;;;;;;;23.44;92.99;153550.03;1605840;87;20195;-68
2022/07/25 01:04:08;;;;;;;;;;;;;;;23.35;93.28;153526.50;1605934;89;20949;-68
2022/07/25 01:06:36;;;;;;;;;;;;;;;23.24;93.98;153498.97;1606409;89;20456;-69
2022/07/25 01:09:02;;;;;;;;;;;;;;;23.13;94.54;153470.16;1606301;87;20190;-68
2022/07/25 01:11:29;;;;;;;;;;;;;;;23.00;94.25;153437.44;1624568;87;20156;-68
2022/07/25 01:13:56;;;;;;;;;;;;;;;22.92;94.37;153417.81;1639984;87;20231;-68
2022/07/25 01:16:23;;;;;;;;;;;;;;;22.87;94.87;153406.02;1639612;87;20240;-68
2022/07/25 01:18:50;;;;;;;;;;;;;;;22.83;95.82;153395.56;1610905;87;21170;-67
2022/07/25 01:21:16;;;;;;;;;;;;;;;22.81;96.53;153390.34;1614340;89;20502;-67
2022/07/25 01:23:43;;;;;;;;;;;;;;;22.78;97.25;153381.22;1614548;87;20212;-68
2022/07/25 01:26:09;;;;;;;;;;;;;;;22.75;97.50;153374.66;1614465;89;20253;-68
2022/07/25 01:28:36;;;;;;;;;;;;;;;22.71;97.14;153365.47;1614661;89;20439;-59
2022/07/25 01:31:03;;;;;;;;;;;;;;;22.64;95.33;153347.19;1614716;89;21147;-59
2022/07/25 01:33:30;;;;;;;;;;;;;;;22.59;93.96;153334.11;1614337;89;20130;-59
2022/07/25 01:35:57;;;;;;;;;;;;;;;22.53;92.05;153319.70;1614479;89;20190;-58
2022/07/25 01:38:24;;;;;;;;;;;;;;;22.49;91.12;153309.25;1614472;87;20218;-59
2022/07/25 01:40:50;;;;;;;;;;;;;;;22.43;90.96;153294.80;1614732;87;20533;-59
2022/07/25 01:43:17;;;;;;;;;;;;;;;22.40;91.32;153285.62;1614729;89;21302;-59
2022/07/25 01:45:44;;;;;;;;;;;;;;;22.32;92.04;153267.33;1614750;89;20451;-59
2022/07/25 01:48:12;;;;;;;;;;;;;;;22.22;92.31;153241.20;1614694;87;20189;-59
2022/07/25 01:50:39;;;;;;;;;;;;;;;22.17;93.82;153228.09;1614743;89;20196;-59
2022/07/25 01:53:06;;;;;;;;;;;;;;;22.12;92.91;153215.02;1614779;87;20186;-59
2022/07/25 01:55:34;;;;;;;;;;;;;;;22.06;92.27;153199.34;1608975;88;20253;-59
2022/07/25 01:58:01;;;;;;;;;;;;;;;22.01;91.89;153188.89;1607981;89;20556;-59
2022/07/25 02:00:28;;;;;;;;;;;;;;;21.98;92.05;153181.00;1607899;87;20226;-59
2022/07/25 02:05:40;;;;;;;;;;;;;;;21.89;94.04;153157.48;1610892;87;20184;-58
2022/07/25 02:08:07;;;;;;;;;;;;;;;21.82;95.00;153139.19;1612845;89;21237;-59
2022/07/25 02:10:34;;;;;;;;;;;;;;;21.74;95.77;153120.86;1617718;87;20180;-58
2022/07/25 02:13:02;;;;;;;;;;;;;;;21.71;95.94;153111.73;1641933;87;20203;-58
2022/07/25 02:15:29;;;;;;;;;;;;;;;21.65;96.90;153097.34;1641860;87;20178;-58
2022/07/25 02:17:56;;;;;;;;;;;;;;;21.62;97.65;153089.45;1633318;87;20177;-59
2022/07/25 02:20:22;;;;;;;;;;;;;;;21.60;98.05;153084.23;1612396;87;21153;-59
2022/07/25 02:22:49;;;;;;;;;;;;;;;21.58;98.22;153080.28;1612453;87;20483;-59
2022/07/25 02:25:16;;;;;;;;;;;;;;;21.58;97.87;153080.28;1612654;87;20316;-58
2022/07/25 02:27:43;;;;;;;;;;;;;;;21.59;97.50;153081.63;1612545;89;20177;-58
2022/07/25 02:30:11;;;;;;;;;;;;;;;21.60;96.74;153084.23;1612367;89;20217;-58
2022/07/25 02:32:38;;;;;;;;;;;;;;;21.61;96.43;153086.84;1612674;89;22176;-58
2022/07/25 02:35:06;;;;;;;;;;;;;;;21.62;96.51;153089.45;1612525;89;20284;-58
2022/07/25 02:37:34;;;;;;;;;;;;;;;21.60;96.40;153084.23;1612760;87;20171;-58
2022/07/25 02:40:01;;;;;;;;;;;;;;;21.58;95.91;153080.28;1612433;89;20193;-58
2022/07/25 02:42:28;;;;;;;;;;;;;;;21.59;95.74;153081.63;1612303;87;20232;-59
2022/07/25 02:44:56;;;;;;;;;;;;;;;21.58;95.93;153080.28;1612073;87;20246;-57
2022/07/25 02:47:23;;;;;;;;;;;;;;;21.57;96.14;153077.67;1612058;87;20223;-58
2022/07/25 02:49:50;;;;;;;;;;;;;;;21.56;96.21;153075.06;1611943;87;20458;-59
2022/07/25 02:52:17;;;;;;;;;;;;;;;21.56;96.26;153073.78;1612158;89;20721;-58
2022/07/25 02:54:44;;;;;;;;;;;;;;;21.55;96.01;153072.45;1609942;87;20141;-58
2022/07/25 02:57:10;;;;;;;;;;;;;;;21.56;95.91;153073.78;1605259;87;22189;-59
2022/07/25 02:59:37;;;;;;;;;;;;;;;21.58;95.62;153079.00;1605579;89;20183;-57
2022/07/25 03:02:04;;;;;;;;;;;;;;;21.58;95.51;153080.28;1605395;89;20213;-58
2022/07/25 03:04:32;;;;;;;;;;;;;;;21.59;95.51;153081.63;1605671;89;20403;-58
2022/07/25 03:06:59;;;;;;;;;;;;;;;21.58;95.46;153079.00;1606044;87;20214;-59
2022/07/25 03:09:26;;;;;;;;;;;;;;;21.56;95.30;153075.06;1605806;87;21317;-58
2022/07/25 03:11:53;;;;;;;;;;;;;;;21.57;95.19;153077.67;1605287;89;20510;-58
2022/07/25 03:14:20;;;;;;;;;;;;;;;21.58;95.22;153079.00;1604899;89;20438;-58
2022/07/25 03:16:47;;;;;;;;;;;;;;;21.58;95.37;153079.00;1604781;89;20205;-58
2022/07/25 03:19:13;;;;;;;;;;;;;;;21.60;95.08;153084.23;1635555;87;20199;-58
2022/07/25 03:21:41;;;;;;;;;;;;;;;21.59;94.51;153081.63;1641814;87;21907;-58
2022/07/25 03:24:08;;;;;;;;;;;;;;;21.58;94.40;153079.00;1641633;87;21004;-59
2022/07/25 03:26:36;;;;;;;;;;;;;;;21.59;94.32;153081.63;1642033;87;20210;-59
2022/07/25 03:29:03;;;;;;;;;;;;;;;21.58;94.03;153079.00;1641966;87;20187;-59
2022/07/25 03:31:29;;;;;;;;;;;;;;;21.58;93.97;153080.28;1641943;86;20218;-59
2022/07/25 03:33:56;;;;;;;;;;;;;;;21.58;93.47;153079.00;1641820;86;21255;-58
2022/07/25 03:36:23;;;;;;;;;;;;;;;21.59;93.09;153081.63;1641871;87;20211;-58
2022/07/25 03:38:50;;;;;;;;;;;;;;;21.58;93.08;153079.00;1642027;87;20163;-58
2022/07/25 03:41:17;;;;;;;;;;;;;;;21.57;92.74;153076.39;1641856;86;20194;-58
2022/07/25 03:43:44;;;;;;;;;;;;;;;21.57;92.65;153076.39;1642223;87;20439;-58
2022/07/25 03:46:11;;;;;;;;;;;;;;;21.55;92.53;153072.45;1641721;87;21157;-58
2022/07/25 03:48:38;;;;;;;;;;;;;;;21.56;92.59;153073.78;1641945;87;20513;-59
2022/07/25 03:51:05;;;;;;;;;;;;;;;21.55;92.48;153071.13;1641863;87;20190;-59
2022/07/25 03:53:32;;;;;;;;;;;;;;;21.53;92.32;153065.91;1641932;87;20165;-59
2022/07/25 03:56:02;;;;;;;;;;;;;;;21.53;92.00;153065.91;1642020;87;20432;-59
2022/07/25 03:58:29;;;;;;;;;;;;;;;21.54;91.94;153068.50;1641953;87;21446;-58
2022/07/25 04:00:56;;;;;;;;;;;;;;;21.56;91.51;153073.78;1641842;87;20170;-59
2022/07/25 04:03:22;;;;;;;;;;;;;;;21.58;91.41;153079.00;1641894;87;20211;-58
2022/07/25 04:05:49;;;;;;;;;;;;;;;21.61;91.35;153088.13;1622553;87;20534;-59
2022/07/25 04:08:16;;;;;;;;;;;;;;;21.64;90.77;153094.69;1612779;89;20245;-59
2022/07/25 04:10:42;;;;;;;;;;;;;;;21.66;89.47;153098.63;1619244;87;21267;-59
2022/07/25 04:13:10;;;;;;;;;;;;;;;21.67;89.55;153102.56;1641873;87;20227;-58
2022/07/25 04:15:37;;;;;;;;;;;;;;;21.71;89.56;153113.02;1642070;87;20188;-58
2022/07/25 04:18:03;;;;;;;;;;;;;;;21.74;89.51;153120.86;1631528;87;20989;-57
2022/07/25 04:20:30;;;;;;;;;;;;;;;21.77;89.51;153126.08;1612455;89;20189;-58
2022/07/25 04:22:57;;;;;;;;;;;;;;;21.80;89.59;153133.97;1612549;87;22140;-58
2022/07/25 04:25:24;;;;;;;;;;;;;;;21.82;89.49;153139.19;1612388;89;20198;-58
2022/07/25 04:27:51;;;;;;;;;;;;;;;21.86;89.57;153149.66;1612844;89;20471;-59
2022/07/25 04:30:19;;;;;;;;;;;;;;;21.87;89.63;153152.25;1612563;89;21017;-58
2022/07/25 04:32:46;;;;;;;;;;;;;;;21.90;89.22;153160.09;1612658;89;20495;-58
2022/07/25 04:35:14;;;;;;;;;;;;;;;21.91;88.95;153162.72;1612253;87;22231;-59
2022/07/25 04:37:41;;;;;;;;;;;;;;;21.94;88.60;153170.55;1612716;87;20168;-58
2022/07/25 04:40:10;;;;;;;;;;;;;;;21.98;88.70;153179.72;1612182;89;20214;-59
2022/07/25 04:42:36;;;;;;;;;;;;;;;22.01;88.13;153188.89;1612098;89;20193;-59
2022/07/25 04:45:04;;;;;;;;;;;;;;;22.00;87.81;153186.28;1612214;87;20212;-58
2022/07/25 04:47:31;;;;;;;;;;;;;;;22.02;87.87;153191.50;1612567;87;21255;-58
2022/07/25 04:49:58;;;;;;;;;;;;;;;22.06;87.81;153200.63;1612333;89;20189;-58
2022/07/25 04:52:25;;;;;;;;;;;;;;;22.09;87.60;153207.19;1612508;89;20213;-57
2022/07/25 04:54:52;;;;;;;;;;;;;;;22.11;87.38;153212.41;1611416;88;20828;-58
2022/07/25 04:57:19;;;;;;;;;;;;;;;22.14;87.28;153220.25;1605529;89;20196;-58
2022/07/25 04:59:46;;;;;;;;;;;;;;;22.15;87.25;153222.86;1605710;87;21235;-58
2022/07/25 05:02:13;;;;;;;;;;;;;;;22.20;87.34;153235.92;1605259;87;20194;-58
2022/07/25 05:04:39;;;;;;;;;;;;;;;22.23;87.15;153243.81;1605529;89;20154;-59
2022/07/25 05:07:06;;;;;;;;;;;;;;;22.28;86.92;153256.87;1605918;89;20530;-59
2022/07/25 05:09:33;;;;;;;;;;;;;;;22.35;86.80;153272.56;1606016;87;20420;-58
2022/07/25 05:11:59;;;;;;;;;;;;;;;22.43;86.28;153293.47;1604975;89;21090;-58
2022/07/25 05:14:27;;;;;;;;;;;;;;;22.52;85.91;153317.09;1604453;87;20200;-60
2022/07/25 05:16:55;;;;;;;;;;;;;;;22.59;85.34;153335.39;1605042;89;20140;-59
2022/07/25 05:19:23;;;;;;;;;;;;;;;22.67;84.74;153355.02;1637912;87;20211;-59
2022/07/25 05:21:51;;;;;;;;;;;;;;;22.74;84.68;153372.03;1641999;87;20205;-60
2022/07/25 05:24:17;;;;;;;;;;;;;;;22.84;84.41;153398.19;1641775;87;21835;-60
2022/07/25 05:26:44;;;;;;;;;;;;;;;22.95;83.90;153424.38;1641885;87;20171;-59
2022/07/25 05:29:11;;;;;;;;;;;;;;;23.01;83.45;153441.39;1641686;87;20439;-60
2022/07/25 05:31:39;;;;;;;;;;;;;;;23.10;83.32;153463.64;1641983;87;20441;-60
2022/07/25 05:34:06;;;;;;;;;;;;;;;23.24;83.38;153497.64;1641888;87;20183;-60
2022/07/25 05:36:34;;;;;;;;;;;;;;;23.45;83.14;153552.66;1642037;87;21279;-58
2022/07/25 05:39:01;;;;;;;;;;;;;;;23.69;82.37;153611.58;1641943;87;20208;-58
2022/07/25 05:41:27;;;;;;;;;;;;;;;23.92;81.39;153670.45;1641767;87;20183;-58
2022/07/25 05:43:54;;;;;;;;;;;;;;;24.11;80.13;153717.64;1642043;87;20207;-59
2022/07/25 05:46:21;;;;;;;;;;;;;;;24.20;79.25;153741.19;1642066;87;20483;-59
2022/07/25 05:48:47;;;;;;;;;;;;;;;24.28;78.55;153760.84;1642039;87;21347;-59
2022/07/25 05:51:14;;;;;;;;;;;;;;;24.31;77.48;153770.03;1641797;86;20206;-59
2022/07/25 05:53:41;;;;;;;;;;;;;;;24.38;77.47;153785.72;1626548;87;20180;-59
2022/07/25 05:56:09;;;;;;;;;;;;;;;24.46;77.33;153807.98;1604647;88;20234;-59
2022/07/25 05:58:39;;;;;;;;;;;;;;;24.59;77.16;153840.72;1605342;89;20292;-58
2022/07/25 06:01:07;;;;;;;;;;;;;;;24.65;76.19;153853.81;1604685;87;20951;-59
2022/07/25 06:03:35;;;;;;;;;;;;;;;24.68;76.23;153863.00;1604381;89;20443;-59
2022/07/25 06:06:02;;;;;;;;;;;;;;;24.79;76.21;153890.56;1602342;88;20434;-59
2022/07/25 06:08:30;;;;;;;;;;;;;;;24.91;75.88;153919.39;1604918;87;20190;-59
2022/07/25 06:10:59;;;;;;;;;;;;;;;25.00;75.90;153942.95;1605220;87;20138;-59
2022/07/25 06:13:27;;;;;;;;;;;;;;;25.07;75.04;153961.28;1606524;87;20238;-59
2022/07/25 06:15:54;;;;;;;;;;;;;;;25.07;74.90;153961.28;1605850;87;20193;-59
2022/07/25 06:18:20;;;;;;;;;;;;;;;25.10;75.08;153967.84;1606217;87;20218;-59
2022/07/25 06:20:47;;;;;;;;;;;;;;;25.22;75.33;153997.97;1602397;87;20209;-59
2022/07/25 06:23:15;;;;;;;;;;;;;;;25.40;74.57;154043.81;1607938;86;20485;-60
2022/07/25 06:25:42;;;;;;;;;;;;;;;25.50;74.17;154070.09;1610085;87;21339;-59
2022/07/25 06:28:13;;;;;;;;;;;;;;;25.59;73.47;154092.38;1604978;87;20217;-59
2022/07/25 06:30:42;;;;;;;;;;;;;;;25.59;72.89;154092.38;1608234;87;20163;-59
2022/07/25 06:33:09;;;;;;;;;;;;;;;25.59;72.69;154093.66;1605396;87;20214;-58
2022/07/25 06:35:37;;;;;;;;;;;;;;;25.62;73.39;154100.23;1610198;87;20525;-58
2022/07/25 06:38:03;;;;;;;;;;;;;;;25.76;73.28;154134.33;1608250;87;22143;-59
2022/07/25 06:40:30;;;;;;;;;;;;;;;25.86;72.09;154160.52;1607690;87;20182;-59
2022/07/25 06:42:57;;;;;;;;;;;;;;;25.90;71.75;154171.00;1605865;87;20205;-58
2022/07/25 06:45:24;;;;;;;;;;;;;;;26.01;71.97;154198.52;1606470;87;20214;-59
2022/07/25 06:47:51;;;;;;;;;;;;;;;26.14;70.25;154232.63;1607449;87;20430;-59
2022/07/25 06:50:18;;;;;;;;;;;;;;;26.18;69.15;154241.81;1587521;89;21203;-59
2022/07/25 06:52:45;;;;;;;;;;;;;;;26.17;68.35;154239.19;1607421;88;20190;-59
2022/07/25 06:55:13;;;;;;;;;;;;;;;26.13;68.42;154228.66;1605332;87;20181;-59
2022/07/25 06:57:41;;;;;;;;;;;;;;;26.10;68.41;154222.14;1610638;87;21023;-59
2022/07/25 07:00:10;;;;;;;;;;;;;;;26.03;68.46;154203.75;1607307;88;20218;-59
2022/07/25 07:02:57;;;;;;;;;;;;;;;26.03;68.44;154205.09;1602900;88;21123;-59
2022/07/25 07:05:24;;;;;;;;;;;;;;;26.09;68.16;154218.19;1605882;87;20434;-59
2022/07/25 07:07:51;;;;;;;;;;;;;;;26.15;68.24;154233.91;1604278;88;20141;-59
2022/07/25 07:10:18;;;;;;;;;;;;;;;26.28;67.95;154268.06;1604089;88;20913;-59
2022/07/25 07:12:45;;;;;;;;;;;;;;;26.43;67.28;154306.06;1604603;87;20199;-59
2022/07/25 07:15:12;;;;;;;;;;;;;;;26.45;65.69;154310.02;1604871;88;21270;-59
2022/07/25 07:17:40;;;;;;;;;;;;;;;26.39;64.89;154294.25;1585381;88;20178;-59
2022/07/25 07:20:07;;;;;;;;;;;;;;;26.28;64.76;154268.06;1605700;88;20495;-59
2022/07/25 07:22:45;;;;;;;;;;;;;;;26.19;64.98;154244.44;1602499;87;20634;-59
2022/07/25 07:25:13;;;;;;;;;;;;;;;26.11;65.50;154223.42;1601863;89;20259;-59
2022/07/25 07:27:40;;;;;;;;;;;;;;;26.10;64.86;154220.81;1602497;88;21289;-58
2022/07/25 07:30:08;;;;;;;;;;;;;;;26.02;64.98;154201.14;1603813;89;21366;-58
2022/07/25 07:32:36;;;;;;;;;;;;;;;26.04;64.85;154206.38;1601697;87;20475;-59
2022/07/25 07:35:03;;;;;;;;;;;;;;;26.04;64.32;154206.38;1603178;87;21502;-60
2022/07/25 07:37:29;;;;;;;;;;;;;;;25.96;65.20;154186.70;1602447;89;20546;-60
2022/07/25 07:39:56;;;;;;;;;;;;;;;26.02;65.49;154201.14;1603093;89;21804;-60
2022/07/25 07:42:23;;;;;;;;;;;;;;;26.09;65.09;154218.19;1607228;87;20475;-60
2022/07/25 07:44:49;;;;;;;;;;;;;;;26.15;63.98;154233.91;1604796;87;20241;-60
2022/07/25 07:47:16;;;;;;;;;;;;;;;26.21;63.47;154249.72;1604580;89;20229;-60
2022/07/25 07:49:43;;;;;;;;;;;;;;;26.23;64.40;154254.95;1604739;89;20428;-60
2022/07/25 07:52:10;;;;;;;;;;;;;;;26.28;63.72;154268.06;1599873;89;22188;-60
2022/07/25 07:57:15;;;;;;;;;;;;;;;26.36;62.89;154286.39;1532280;92;20521;-60
2022/07/25 07:59:42;;;;;;;;;;;;;;;26.44;62.17;154307.41;1606969;88;20175;-60
2022/07/25 08:02:08;;;;;;;;;;;;;;;26.51;61.02;154324.41;1608692;87;20189;-60
2022/07/25 08:04:38;;;;;;;;;;;;;;;26.62;61.39;154353.27;1608826;88;21267;-60
2022/07/25 08:07:06;;;;;;;;;;;;;;;26.78;60.77;154393.91;1609493;87;20583;-60
2022/07/25 08:09:35;;;;;;;;;;;;;;;26.81;59.09;154400.48;1611946;87;20125;-60
2022/07/25 08:12:01;;;;;;;;;;;;;;;26.73;58.18;154380.81;1616882;87;20213;-60
2022/07/25 08:14:29;;;;;;;;;;;;;;;26.64;57.99;154357.19;1611085;87;20190;-60
2022/07/25 08:16:57;;;;;;;;;;;;;;;26.59;58.11;154346.70;1615326;87;21257;-60
2022/07/25 08:19:25;;;;;;;;;;;;;;;26.66;58.21;154362.47;1593328;88;20193;-60
2022/07/25 08:21:52;;;;;;;;;;;;;;;26.73;56.59;154382.09;1584641;89;20611;-60
2022/07/25 08:24:18;;;;;;;;;;;;;;;26.75;57.06;154386.05;1551675;91;21591;-60
2022/07/25 08:26:46;;;;;;;;;;;;;;;26.79;56.86;154396.53;1581278;89;20187;-60
2022/07/25 08:29:12;;;;;;;;;;;;;;;26.83;56.36;154407.02;1592248;87;21322;-60
2022/07/25 08:31:40;;;;;;;;;;;;;;;26.87;56.56;154417.59;1584935;89;20196;-60
2022/07/25 08:34:07;;;;;;;;;;;;;;;26.97;55.11;154441.19;1580761;89;20498;-60
2022/07/25 08:36:34;;;;;;;;;;;;;;;26.98;54.61;154443.80;1580984;89;20735;-60
2022/07/25 08:39:00;;;;;;;;;;;;;;;26.99;54.71;154446.42;1582856;89;20202;-60
2022/07/25 08:41:27;;;;;;;;;;;;;;;27.00;53.87;154449.03;1591038;89;21284;-61
2022/07/25 08:43:54;;;;;;;;;;;;;;;27.01;53.67;154451.66;1587621;89;20286;-60
2022/07/25 08:46:21;;;;;;;;;;;;;;;27.08;54.15;154470.06;1551975;91;20220;-59
2022/07/25 08:48:48;;;;;;;;;;;;;;;27.11;53.25;154477.91;1590171;89;20627;-60
2022/07/25 08:51:14;;;;;;;;;;;;;;;27.07;53.15;154466.09;1586596;89;20217;-58
2022/07/25 08:53:42;;;;;;;;;;;;;;;27.10;53.31;154475.30;1584712;89;21147;-58
2022/07/25 08:56:09;;;;;;;;;;;;;;;27.15;52.63;154487.06;1589250;88;20233;-59
2022/07/25 08:58:36;;;;;;;;;;;;;;;27.22;52.74;154505.47;1608145;87;20233;-60
2022/07/25 09:01:03;;;;;;;;;;;;;;;27.22;51.04;154504.13;1575716;90;20827;-59
2022/07/25 09:03:31;;;;;;;;;;;;;;;27.20;52.03;154498.88;1594576;89;20218;-60
2022/07/25 09:05:58;;;;;;;;;;;;;;;27.27;51.37;154518.56;1598562;89;21853;-69
2022/07/25 09:08:26;;;;;;;;;;;;;;;27.41;50.25;154553.97;1594644;89;20258;-69
2022/07/25 09:10:54;;;;;;;;;;;;;;;27.43;49.46;154559.22;1590644;88;20434;-69
2022/07/25 09:13:22;;;;;;;;;;;;;;;27.49;49.42;154572.31;1595977;88;20478;-69
2022/07/25 09:15:53;;;;;;;;;;;;;;;27.58;49.32;154596.02;1606650;89;20513;-69
2022/07/25 09:18:24;;;;;;;;;;;;;;;27.68;49.15;154620.94;1587485;89;21319;-69
2022/07/25 09:20:54;;;;;;;;;;;;;;;27.72;49.01;154631.44;1604393;88;20302;-69
2022/07/25 09:23:31;;;;;;;;;;;;;;;27.82;47.99;154656.36;1582327;89;20235;-69
2022/07/25 09:26:09;;;;;;;;;;;;;;;27.93;47.19;154685.20;1592003;89;20237;-70
2022/07/25 09:28:41;;;;;;;;;;;;;;;28.03;46.97;154711.47;1594803;89;20247;-69
2022/07/25 09:31:08;;;;;;;;;;;;;;;28.09;47.14;154724.58;1595123;89;21242;-70
2022/07/25 09:33:47;;;;;;;;;;;;;;;28.07;46.12;154719.34;1599256;88;20222;-70
2022/07/25 09:36:14;;;;;;;;;;;;;;;27.92;46.79;154681.30;1591725;89;20253;-69
2022/07/25 09:38:55;;;;;;;;;;;;;;;27.93;47.00;154683.92;1606392;89;20218;-69
2022/07/25 09:41:35;;;;;;;;;;;;;;;28.05;46.63;154715.38;1592183;89;20235;-68
2022/07/25 09:44:03;;;;;;;;;;;;;;;28.21;45.74;154754.81;1596950;89;21244;-69
2022/07/25 09:46:30;;;;;;;;;;;;;;;28.33;45.02;154785.00;1605012;89;20315;-68
2022/07/25 09:48:58;;;;;;;;;;;;;;;28.28;44.31;154773.17;1607264;89;20263;-69
2022/07/25 09:51:25;;;;;;;;;;;;;;;28.24;44.02;154764.02;1590409;89;20174;-69
2022/07/25 09:53:52;;;;;;;;;;;;;;;28.25;43.29;154766.64;1603999;89;20270;-69
2022/07/25 09:56:19;;;;;;;;;;;;;;;28.28;43.23;154774.50;1600232;89;21213;-68
2022/07/25 09:58:46;;;;;;;;;;;;;;;28.37;42.69;154795.48;1609849;88;20601;-69
2022/07/25 10:01:17;;;;;;;;;;;;;;;28.41;41.90;154806.03;1612466;87;20206;-70
2022/07/25 10:03:56;;;;;;;;;;;;;;;28.41;42.02;154806.03;1608996;86;20933;-69
2022/07/25 10:06:45;;;;;;;;;;;;;;;28.47;42.22;154821.77;1604896;88;20221;-69
2022/07/25 10:09:12;;;;;;;;;;;;;;;28.53;42.26;154837.50;1607555;88;21188;-70
2022/07/25 10:11:40;;;;;;;;;;;;;;;28.64;42.27;154865.06;1612790;87;20207;-69
2022/07/25 10:14:11;;;;;;;;;;;;;;;28.69;40.81;154876.89;1608982;87;20203;-69
2022/07/25 10:16:47;;;;;;;;;;;;;;;28.60;40.63;154855.86;1613531;87;20713;-69
2022/07/25 10:19:14;;;;;;;;;;;;;;;28.60;40.25;154854.58;1606027;88;20474;-69
2022/07/25 10:21:41;;;;;;;;;;;;;;;28.65;40.20;154866.41;1608855;88;21150;-69
2022/07/25 10:24:08;;;;;;;;;;;;;;;28.72;40.06;154884.77;1610668;88;20206;-70
2022/07/25 10:26:37;;;;;;;;;;;;;;;28.78;39.18;154900.50;1610339;88;20748;-69
2022/07/25 10:29:08;;;;;;;;;;;;;;;28.74;38.92;154890.00;1609831;87;20239;-68
2022/07/25 10:31:38;;;;;;;;;;;;;;;28.73;38.52;154887.39;1611205;88;20519;-68
2022/07/25 10:34:07;;;;;;;;;;;;;;;28.74;37.75;154890.00;1610442;87;21269;-68
2022/07/25 10:36:55;;;;;;;;;;;;;;;28.76;37.52;154893.97;1585353;88;20217;-68
2022/07/25 10:39:21;;;;;;;;;;;;;;;28.70;37.37;154879.52;1605177;87;20469;-68
2022/07/25 10:41:52;;;;;;;;;;;;;;;28.63;37.45;154862.44;1619440;87;20253;-68
2022/07/25 10:44:19;;;;;;;;;;;;;;;28.53;37.95;154836.22;1610458;87;20179;-68
2022/07/25 10:46:46;;;;;;;;;;;;;;;28.43;37.68;154811.28;1610226;87;21257;-68
2022/07/25 10:49:26;;;;;;;;;;;;;;;28.35;37.98;154790.25;1610146;89;20165;-68
2022/07/25 10:51:57;;;;;;;;;;;;;;;28.33;38.08;154785.00;1605072;87;20523;-68
2022/07/25 10:54:25;;;;;;;;;;;;;;;28.41;37.48;154806.03;1610932;87;20201;-69
2022/07/25 10:56:57;;;;;;;;;;;;;;;28.41;37.26;154806.03;1614224;87;20209;-68
2022/07/25 10:59:30;;;;;;;;;;;;;;;28.46;37.38;154819.14;1585672;89;21158;-68
2022/07/25 11:01:57;;;;;;;;;;;;;;;28.49;36.74;154827.00;1555634;90;20551;-68
2022/07/25 11:04:24;;;;;;;;;;;;;;;28.51;37.00;154832.25;1586334;89;20216;-68
2022/07/25 11:06:51;;;;;;;;;;;;;;;28.53;37.49;154836.22;1596839;88;20522;-69
2022/07/25 11:09:19;;;;;;;;;;;;;;;28.60;37.30;154855.86;1587383;89;20195;-69
2022/07/25 11:11:48;;;;;;;;;;;;;;;28.62;36.69;154859.81;1595663;88;20194;-69
2022/07/25 11:14:23;;;;;;;;;;;;;;;28.65;36.82;154866.41;1591481;89;20429;-69
2022/07/25 11:16:52;;;;;;;;;;;;;;;28.73;35.09;154887.39;1587622;89;20466;-69
2022/07/25 11:19:22;;;;;;;;;;;;;;;28.73;35.45;154888.67;1592973;89;20213;-69
2022/07/25 11:21:51;;;;;;;;;;;;;;;28.83;35.44;154913.66;1593047;89;20774;-69
2022/07/25 11:24:18;;;;;;;;;;;;;;;28.96;35.58;154945.19;1587376;89;21261;-69
2022/07/25 11:26:51;;;;;;;;;;;;;;;29.10;35.12;154981.97;1586792;88;20265;-69
2022/07/25 11:29:23;;;;;;;;;;;;;;;29.16;34.21;154997.72;1593987;88;20177;-69
2022/07/25 11:31:59;;;;;;;;;;;;;;;29.13;34.18;154989.84;1593255;89;20228;-69
2022/07/25 11:34:28;;;;;;;;;;;;;;;29.19;33.22;155002.97;1584239;89;20190;-69
2022/07/25 11:36:56;;;;;;;;;;;;;;;29.21;32.93;155008.22;1588126;89;21168;-69
2022/07/25 11:39:27;;;;;;;;;;;;;;;29.27;33.06;155025.28;1587340;89;20551;-69
2022/07/25 11:42:01;;;;;;;;;;;;;;;29.39;33.44;155054.16;1588362;89;20189;-69
2022/07/25 11:44:39;;;;;;;;;;;;;;;29.39;33.12;155054.16;1577840;90;20688;-68
2022/07/25 11:47:09;;;;;;;;;;;;;;;29.36;33.26;155047.63;1584628;88;20184;-68
2022/07/25 11:49:46;;;;;;;;;;;;;;;29.36;33.78;155047.63;1586247;89;21126;-69
2022/07/25 11:52:25;;;;;;;;;;;;;;;29.42;33.44;155063.41;1570302;90;20553;-69
2022/07/25 11:55:04;;;;;;;;;;;;;;;29.53;32.84;155091.00;1613732;87;20219;-69
2022/07/25 11:57:33;;;;;;;;;;;;;;;29.72;32.28;155139.56;1612257;85;20458;-69
2022/07/25 12:00:01;;;;;;;;;;;;;;;29.92;32.65;155189.48;1608778;87;20174;-69
2022/07/25 12:02:31;;;;;;;;;;;;;;;29.96;32.80;155200.03;1605304;89;21183;-67
2022/07/25 12:05:00;;;;;;;;;;;;;;;29.94;32.96;155193.44;1604135;88;20185;-69
2022/07/25 12:07:47;;;;;;;;;;;;;;;29.90;32.35;155184.23;1605183;88;20488;-69
2022/07/25 12:10:16;;;;;;;;;;;;;;;29.82;32.50;155164.53;1605454;87;20463;-69
2022/07/25 12:12:49;;;;;;;;;;;;;;;29.81;32.90;155160.61;1608810;87;20253;-69
2022/07/25 12:15:26;;;;;;;;;;;;;;;29.79;33.45;155155.36;1604378;89;21161;-69
2022/07/25 12:17:55;;;;;;;;;;;;;;;29.64;33.65;155117.28;1605363;87;20265;-68
2022/07/25 12:20:26;;;;;;;;;;;;;;;29.47;34.07;155073.91;1607707;88;20503;-69
2022/07/25 12:22:54;;;;;;;;;;;;;;;29.38;34.41;155052.88;1605260;89;20573;-60
2022/07/25 12:25:21;;;;;;;;;;;;;;;29.33;34.70;155039.75;1606732;87;20206;-60
2022/07/25 12:27:48;;;;;;;;;;;;;;;29.28;34.63;155026.58;1603113;89;21283;-60
2022/07/25 12:30:15;;;;;;;;;;;;;;;29.23;34.93;155013.47;1608680;87;20635;-69
2022/07/25 12:32:43;;;;;;;;;;;;;;;29.17;35.09;154999.00;1618737;87;20175;-69
2022/07/25 12:35:11;;;;;;;;;;;;;;;29.12;35.39;154987.22;1603463;88;20202;-60
2022/07/25 12:37:39;;;;;;;;;;;;;;;29.09;35.14;154978.02;1602253;89;20148;-60
2022/07/25 12:40:07;;;;;;;;;;;;;;;29.00;35.23;154955.69;1604831;89;21870;-60
2022/07/25 12:42:33;;;;;;;;;;;;;;;28.93;35.56;154937.33;1602960;87;20167;-59
2022/07/25 12:45:00;;;;;;;;;;;;;;;28.87;35.73;154924.22;1604366;87;20198;-59